Terminal Aerodrome Forecast
Issued by NWS

Home | Current Version | Previous Version | Graphics & Text | Print | Product List | Glossary On
Versions: 1 2 3 4 5 6 7 8 9 10 11 12 13 14 15 16 17 18 19 20 21
000
FTUS43 KOAX 290500
TAFCDR
TAF
KCDR 290520Z 2906/3006 VRB05KT P6SM SCT050
     FM291500 31006KT P6SM BKN150
     FM292000 02008KT P6SM SCT150=

USA.gov is the U.S. government's official web portal to all federal, state and local government web resources and services.